sensor_id;sensor_type;location;lat;lon;timestamp;P1;durP1;ratioP1;P2;durP2;ratioP2
18796;SDS011;9526;52.612;13.300;2022-12-24T00:01:54;49.38;;;14.43;;
18796;SDS011;9526;52.612;13.300;2022-12-24T00:04:18;55.63;;;14.35;;
18796;SDS011;9526;52.612;13.300;2022-12-24T00:06:42;72.38;;;15.55;;
18796;SDS011;9526;52.612;13.300;2022-12-24T00:09:08;70.40;;;15.63;;
18796;SDS011;9526;52.612;13.300;2022-12-24T00:11:31;52.80;;;14.35;;
18796;SDS011;9526;52.612;13.300;2022-12-24T00:13:55;59.05;;;14.82;;
18796;SDS011;9526;52.612;13.300;2022-12-24T00:16:19;61.03;;;15.25;;
18796;SDS011;9526;52.612;13.300;2022-12-24T00:18:43;53.63;;;14.13;;
18796;SDS011;9526;52.612;13.300;2022-12-24T00:21:07;56.70;;;15.25;;
18796;SDS011;9526;52.612;13.300;2022-12-24T00:23:31;52.80;;;15.13;;
18796;SDS011;9526;52.612;13.300;2022-12-24T00:25:56;64.75;;;15.63;;
18796;SDS011;9526;52.612;13.300;2022-12-24T00:28:20;57.65;;;14.75;;
18796;SDS011;9526;52.612;13.300;2022-12-24T00:30:44;60.03;;;14.88;;
18796;SDS011;9526;52.612;13.300;2022-12-24T00:33:08;47.85;;;12.13;;
18796;SDS011;9526;52.612;13.300;2022-12-24T00:35:32;53.38;;;14.82;;
18796;SDS011;9526;52.612;13.300;2022-12-24T00:37:56;58.67;;;15.00;;
18796;SDS011;9526;52.612;13.300;2022-12-24T00:40:20;53.10;;;14.23;;
18796;SDS011;9526;52.612;13.300;2022-12-24T00:42:45;44.38;;;13.18;;
18796;SDS011;9526;52.612;13.300;2022-12-24T00:45:09;55.53;;;15.23;;
18796;SDS011;9526;52.612;13.300;2022-12-24T00:47:34;53.35;;;15.25;;
18796;SDS011;9526;52.612;13.300;2022-12-24T00:49:57;58.67;;;15.80;;
18796;SDS011;9526;52.612;13.300;2022-12-24T00:52:22;56.65;;;15.63;;
18796;SDS011;9526;52.612;13.300;2022-12-24T00:54:46;68.38;;;16.27;;
18796;SDS011;9526;52.612;13.300;2022-12-24T00:57:09;47.10;;;14.23;;
18796;SDS011;9526;52.612;13.300;2022-12-24T00:59:34;58.67;;;14.85;;
18796;SDS011;9526;52.612;13.300;2022-12-24T01:01:58;55.25;;;14.65;;
18796;SDS011;9526;52.612;13.300;2022-12-24T01:04:22;57.47;;;15.00;;
18796;SDS011;9526;52.612;13.300;2022-12-24T01:07:03;53.13;;;14.55;;
18796;SDS011;9526;52.612;13.300;2022-12-24T01:09:26;52.38;;;14.98;;
18796;SDS011;9526;52.612;13.300;2022-12-24T01:11:50;54.60;;;15.38;;
18796;SDS011;9526;52.612;13.300;2022-12-24T01:14:14;56.97;;;15.73;;
18796;SDS011;9526;52.612;13.300;2022-12-24T01:16:39;40.72;;;13.77;;
18796;SDS011;9526;52.612;13.300;2022-12-24T01:19:02;53.20;;;15.20;;
18796;SDS011;9526;52.612;13.300;2022-12-24T01:21:26;57.80;;;16.10;;
18796;SDS011;9526;52.612;13.300;2022-12-24T01:23:51;51.72;;;16.05;;
18796;SDS011;9526;52.612;13.300;2022-12-24T01:26:14;51.95;;;16.08;;
18796;SDS011;9526;52.612;13.300;2022-12-24T01:28:38;56.33;;;15.88;;
18796;SDS011;9526;52.612;13.300;2022-12-24T01:31:04;46.08;;;14.32;;
18796;SDS011;9526;52.612;13.300;2022-12-24T01:33:35;58.80;;;15.93;;
18796;SDS011;9526;52.612;13.300;2022-12-24T01:36:01;54.17;;;15.43;;
18796;SDS011;9526;52.612;13.300;2022-12-24T01:38:25;61.00;;;16.85;;
18796;SDS011;9526;52.612;13.300;2022-12-24T01:40:48;60.10;;;15.85;;
18796;SDS011;9526;52.612;13.300;2022-12-24T01:43:30;55.28;;;15.95;;
18796;SDS011;9526;52.612;13.300;2022-12-24T01:45:55;62.05;;;16.85;;
18796;SDS011;9526;52.612;13.300;2022-12-24T01:48:22;61.60;;;16.30;;
18796;SDS011;9526;52.612;13.300;2022-12-24T01:50:58;53.92;;;15.60;;
18796;SDS011;9526;52.612;13.300;2022-12-24T01:53:26;52.38;;;15.15;;
18796;SDS011;9526;52.612;13.300;2022-12-24T01:55:50;62.20;;;16.13;;
18796;SDS011;9526;52.612;13.300;2022-12-24T01:58:14;61.83;;;15.52;;
18796;SDS011;9526;52.612;13.300;2022-12-24T02:00:39;58.25;;;15.82;;
18796;SDS011;9526;52.612;13.300;2022-12-24T02:03:03;61.13;;;16.30;;
18796;SDS011;9526;52.612;13.300;2022-12-24T02:05:29;60.42;;;15.57;;
18796;SDS011;9526;52.612;13.300;2022-12-24T02:07:59;55.60;;;15.95;;
18796;SDS011;9526;52.612;13.300;2022-12-24T02:10:25;68.65;;;17.30;;
18796;SDS011;9526;52.612;13.300;2022-12-24T02:12:49;57.88;;;15.77;;
18796;SDS011;9526;52.612;13.300;2022-12-24T02:15:14;57.08;;;16.33;;
18796;SDS011;9526;52.612;13.300;2022-12-24T02:17:41;57.95;;;16.15;;
18796;SDS011;9526;52.612;13.300;2022-12-24T02:26:33;59.57;;;15.80;;
18796;SDS011;9526;52.612;13.300;2022-12-24T02:32:31;66.97;;;15.30;;
18796;SDS011;9526;52.612;13.300;2022-12-24T02:35:03;61.70;;;17.13;;
18796;SDS011;9526;52.612;13.300;2022-12-24T02:37:32;60.30;;;15.32;;
18796;SDS011;9526;52.612;13.300;2022-12-24T02:40:00;56.33;;;15.90;;
18796;SDS011;9526;52.612;13.300;2022-12-24T02:42:38;63.58;;;16.35;;
18796;SDS011;9526;52.612;13.300;2022-12-24T02:45:06;61.05;;;16.10;;
18796;SDS011;9526;52.612;13.300;2022-12-24T02:47:33;65.07;;;16.87;;
18796;SDS011;9526;52.612;13.300;2022-12-24T02:49:59;67.20;;;16.42;;
18796;SDS011;9526;52.612;13.300;2022-12-24T02:52:27;68.70;;;16.60;;
18796;SDS011;9526;52.612;13.300;2022-12-24T02:54:52;60.40;;;17.02;;
18796;SDS011;9526;52.612;13.300;2022-12-24T02:57:17;61.53;;;16.05;;
18796;SDS011;9526;52.612;13.300;2022-12-24T02:59:54;69.28;;;16.38;;
18796;SDS011;9526;52.612;13.300;2022-12-24T03:02:29;81.70;;;18.00;;
18796;SDS011;9526;52.612;13.300;2022-12-24T03:05:09;70.88;;;16.80;;
18796;SDS011;9526;52.612;13.300;2022-12-24T03:07:42;59.25;;;15.98;;
18796;SDS011;9526;52.612;13.300;2022-12-24T03:10:19;67.32;;;16.92;;
18796;SDS011;9526;52.612;13.300;2022-12-24T03:12:52;59.88;;;16.42;;
18796;SDS011;9526;52.612;13.300;2022-12-24T03:15:21;66.78;;;17.58;;
18796;SDS011;9526;52.612;13.300;2022-12-24T03:17:48;63.72;;;16.70;;
18796;SDS011;9526;52.612;13.300;2022-12-24T03:20:17;70.15;;;18.27;;
18796;SDS011;9526;52.612;13.300;2022-12-24T03:22:46;70.77;;;17.30;;
18796;SDS011;9526;52.612;13.300;2022-12-24T03:25:10;61.88;;;16.63;;
18796;SDS011;9526;52.612;13.300;2022-12-24T03:27:33;64.47;;;17.05;;
18796;SDS011;9526;52.612;13.300;2022-12-24T03:29:59;64.32;;;16.70;;
18796;SDS011;9526;52.612;13.300;2022-12-24T03:32:27;58.25;;;16.73;;
18796;SDS011;9526;52.612;13.300;2022-12-24T03:34:54;69.35;;;17.83;;
18796;SDS011;9526;52.612;13.300;2022-12-24T03:37:18;66.95;;;18.08;;
18796;SDS011;9526;52.612;13.300;2022-12-24T03:39:41;68.60;;;17.83;;
18796;SDS011;9526;52.612;13.300;2022-12-24T03:42:05;66.25;;;16.55;;
18796;SDS011;9526;52.612;13.300;2022-12-24T03:44:29;61.65;;;16.27;;
18796;SDS011;9526;52.612;13.300;2022-12-24T03:46:52;66.30;;;16.75;;
18796;SDS011;9526;52.612;13.300;2022-12-24T03:49:16;68.07;;;16.35;;
18796;SDS011;9526;52.612;13.300;2022-12-24T03:51:41;65.55;;;17.10;;
18796;SDS011;9526;52.612;13.300;2022-12-24T03:54:05;71.20;;;17.40;;
18796;SDS011;9526;52.612;13.300;2022-12-24T03:56:29;66.60;;;16.65;;
18796;SDS011;9526;52.612;13.300;2022-12-24T03:58:52;67.30;;;16.60;;
18796;SDS011;9526;52.612;13.300;2022-12-24T04:01:16;56.83;;;16.95;;
18796;SDS011;9526;52.612;13.300;2022-12-24T04:03:41;64.13;;;17.08;;
18796;SDS011;9526;52.612;13.300;2022-12-24T04:06:05;72.35;;;17.30;;
18796;SDS011;9526;52.612;13.300;2022-12-24T04:08:33;59.42;;;16.58;;
18796;SDS011;9526;52.612;13.300;2022-12-24T04:10:57;64.13;;;16.58;;
18796;SDS011;9526;52.612;13.300;2022-12-24T04:13:28;65.93;;;15.93;;
18796;SDS011;9526;52.612;13.300;2022-12-24T04:15:57;69.50;;;17.60;;
18796;SDS011;9526;52.612;13.300;2022-12-24T04:18:22;58.53;;;17.25;;
18796;SDS011;9526;52.612;13.300;2022-12-24T04:20:46;60.45;;;16.70;;
18796;SDS011;9526;52.612;13.300;2022-12-24T04:23:10;61.28;;;17.08;;
18796;SDS011;9526;52.612;13.300;2022-12-24T04:25:35;51.42;;;14.75;;
18796;SDS011;9526;52.612;13.300;2022-12-24T04:27:59;82.18;;;17.98;;
18796;SDS011;9526;52.612;13.300;2022-12-24T04:30:23;56.60;;;16.70;;
18796;SDS011;9526;52.612;13.300;2022-12-24T04:32:47;62.60;;;16.80;;
18796;SDS011;9526;52.612;13.300;2022-12-24T04:35:10;65.32;;;16.25;;
18796;SDS011;9526;52.612;13.300;2022-12-24T04:37:34;59.40;;;16.38;;
18796;SDS011;9526;52.612;13.300;2022-12-24T04:39:58;65.47;;;17.40;;
18796;SDS011;9526;52.612;13.300;2022-12-24T04:42:23;60.50;;;16.88;;
18796;SDS011;9526;52.612;13.300;2022-12-24T04:44:46;66.78;;;16.65;;
18796;SDS011;9526;52.612;13.300;2022-12-24T04:47:10;58.00;;;16.65;;
18796;SDS011;9526;52.612;13.300;2022-12-24T04:49:34;62.22;;;16.90;;
18796;SDS011;9526;52.612;13.300;2022-12-24T04:51:57;78.05;;;17.33;;
18796;SDS011;9526;52.612;13.300;2022-12-24T04:54:21;88.65;;;18.05;;
18796;SDS011;9526;52.612;13.300;2022-12-24T04:56:45;73.47;;;17.33;;
18796;SDS011;9526;52.612;13.300;2022-12-24T04:59:10;83.43;;;18.05;;
18796;SDS011;9526;52.612;13.300;2022-12-24T05:01:34;82.90;;;17.73;;
18796;SDS011;9526;52.612;13.300;2022-12-24T05:03:58;83.05;;;17.77;;
18796;SDS011;9526;52.612;13.300;2022-12-24T05:06:23;96.90;;;17.73;;
18796;SDS011;9526;52.612;13.300;2022-12-24T05:08:48;74.50;;;17.58;;
18796;SDS011;9526;52.612;13.300;2022-12-24T05:11:12;71.03;;;17.55;;
18796;SDS011;9526;52.612;13.300;2022-12-24T05:13:36;76.30;;;17.98;;
18796;SDS011;9526;52.612;13.300;2022-12-24T05:16:09;68.25;;;16.92;;
18796;SDS011;9526;52.612;13.300;2022-12-24T05:18:33;60.58;;;17.30;;
18796;SDS011;9526;52.612;13.300;2022-12-24T05:20:57;73.50;;;17.45;;
18796;SDS011;9526;52.612;13.300;2022-12-24T05:23:22;65.95;;;17.10;;
18796;SDS011;9526;52.612;13.300;2022-12-24T05:26:04;73.75;;;17.52;;
18796;SDS011;9526;52.612;13.300;2022-12-24T05:28:44;72.55;;;17.73;;
18796;SDS011;9526;52.612;13.300;2022-12-24T05:31:09;64.57;;;17.67;;
18796;SDS011;9526;52.612;13.300;2022-12-24T05:33:33;65.93;;;17.80;;
18796;SDS011;9526;52.612;13.300;2022-12-24T05:35:57;87.55;;;17.83;;
18796;SDS011;9526;52.612;13.300;2022-12-24T05:38:20;74.25;;;17.65;;
18796;SDS011;9526;52.612;13.300;2022-12-24T05:40:45;77.97;;;18.38;;
18796;SDS011;9526;52.612;13.300;2022-12-24T05:43:09;89.97;;;19.48;;
18796;SDS011;9526;52.612;13.300;2022-12-24T05:45:32;75.60;;;18.27;;
18796;SDS011;9526;52.612;13.300;2022-12-24T05:47:57;65.82;;;17.13;;
18796;SDS011;9526;52.612;13.300;2022-12-24T05:50:21;73.90;;;17.83;;
18796;SDS011;9526;52.612;13.300;2022-12-24T05:52:58;76.13;;;18.30;;
18796;SDS011;9526;52.612;13.300;2022-12-24T05:55:22;67.45;;;17.52;;
18796;SDS011;9526;52.612;13.300;2022-12-24T05:57:45;75.30;;;19.23;;
18796;SDS011;9526;52.612;13.300;2022-12-24T06:00:09;75.43;;;18.65;;
18796;SDS011;9526;52.612;13.300;2022-12-24T06:02:34;66.43;;;18.67;;
18796;SDS011;9526;52.612;13.300;2022-12-24T06:04:59;80.95;;;18.95;;
18796;SDS011;9526;52.612;13.300;2022-12-24T06:07:23;59.92;;;17.38;;
18796;SDS011;9526;52.612;13.300;2022-12-24T06:09:46;72.47;;;18.10;;
18796;SDS011;9526;52.612;13.300;2022-12-24T06:12:10;84.77;;;18.97;;
18796;SDS011;9526;52.612;13.300;2022-12-24T06:14:34;75.93;;;18.00;;
18796;SDS011;9526;52.612;13.300;2022-12-24T06:16:57;67.37;;;18.50;;
18796;SDS011;9526;52.612;13.300;2022-12-24T06:19:22;72.57;;;17.43;;
18796;SDS011;9526;52.612;13.300;2022-12-24T06:21:47;73.63;;;18.17;;
18796;SDS011;9526;52.612;13.300;2022-12-24T06:24:11;75.70;;;17.92;;
18796;SDS011;9526;52.612;13.300;2022-12-24T06:26:34;71.40;;;18.45;;
18796;SDS011;9526;52.612;13.300;2022-12-24T06:28:58;78.40;;;18.30;;
18796;SDS011;9526;52.612;13.300;2022-12-24T06:31:22;75.27;;;18.13;;
18796;SDS011;9526;52.612;13.300;2022-12-24T06:33:46;78.57;;;18.85;;
18796;SDS011;9526;52.612;13.300;2022-12-24T06:36:12;94.10;;;19.23;;
18796;SDS011;9526;52.612;13.300;2022-12-24T06:38:40;103.72;;;19.75;;
18796;SDS011;9526;52.612;13.300;2022-12-24T06:41:04;81.18;;;18.25;;
18796;SDS011;9526;52.612;13.300;2022-12-24T06:43:29;91.15;;;19.75;;
18796;SDS011;9526;52.612;13.300;2022-12-24T06:45:54;88.07;;;19.87;;
18796;SDS011;9526;52.612;13.300;2022-12-24T06:48:18;80.18;;;18.25;;
18796;SDS011;9526;52.612;13.300;2022-12-24T06:50:42;76.57;;;18.60;;
18796;SDS011;9526;52.612;13.300;2022-12-24T06:53:07;77.97;;;19.05;;
18796;SDS011;9526;52.612;13.300;2022-12-24T06:55:33;87.75;;;19.23;;
18796;SDS011;9526;52.612;13.300;2022-12-24T06:57:56;83.35;;;19.00;;
18796;SDS011;9526;52.612;13.300;2022-12-24T07:00:20;77.88;;;19.23;;
18796;SDS011;9526;52.612;13.300;2022-12-24T07:02:44;76.95;;;17.67;;
18796;SDS011;9526;52.612;13.300;2022-12-24T07:05:08;83.53;;;19.30;;
18796;SDS011;9526;52.612;13.300;2022-12-24T07:07:35;76.72;;;18.48;;
18796;SDS011;9526;52.612;13.300;2022-12-24T07:10:00;71.18;;;17.83;;
18796;SDS011;9526;52.612;13.300;2022-12-24T07:12:25;104.65;;;20.20;;
18796;SDS011;9526;52.612;13.300;2022-12-24T07:14:49;78.50;;;18.33;;
18796;SDS011;9526;52.612;13.300;2022-12-24T07:17:12;88.22;;;18.25;;
18796;SDS011;9526;52.612;13.300;2022-12-24T07:19:36;73.18;;;17.70;;
18796;SDS011;9526;52.612;13.300;2022-12-24T07:22:00;78.03;;;18.45;;
18796;SDS011;9526;52.612;13.300;2022-12-24T07:24:23;71.45;;;18.60;;
18796;SDS011;9526;52.612;13.300;2022-12-24T07:26:47;77.20;;;18.10;;
18796;SDS011;9526;52.612;13.300;2022-12-24T07:29:12;76.32;;;18.13;;
18796;SDS011;9526;52.612;13.300;2022-12-24T07:31:36;69.78;;;17.85;;
18796;SDS011;9526;52.612;13.300;2022-12-24T07:34:00;71.38;;;17.50;;
18796;SDS011;9526;52.612;13.300;2022-12-24T07:36:23;84.28;;;19.20;;
18796;SDS011;9526;52.612;13.300;2022-12-24T07:38:48;76.53;;;18.25;;
18796;SDS011;9526;52.612;13.300;2022-12-24T07:41:13;80.78;;;19.10;;
18796;SDS011;9526;52.612;13.300;2022-12-24T07:43:36;94.25;;;19.77;;
18796;SDS011;9526;52.612;13.300;2022-12-24T07:46:02;92.47;;;19.00;;
18796;SDS011;9526;52.612;13.300;2022-12-24T07:48:26;91.63;;;18.85;;
18796;SDS011;9526;52.612;13.300;2022-12-24T07:50:51;97.20;;;18.92;;
18796;SDS011;9526;52.612;13.300;2022-12-24T07:53:15;79.40;;;18.05;;
18796;SDS011;9526;52.612;13.300;2022-12-24T07:55:38;81.68;;;19.38;;
18796;SDS011;9526;52.612;13.300;2022-12-24T07:58:02;86.75;;;18.55;;
18796;SDS011;9526;52.612;13.300;2022-12-24T08:00:26;79.57;;;19.45;;
18796;SDS011;9526;52.612;13.300;2022-12-24T08:02:51;74.53;;;19.07;;
18796;SDS011;9526;52.612;13.300;2022-12-24T08:05:15;86.10;;;19.57;;
18796;SDS011;9526;52.612;13.300;2022-12-24T08:07:38;78.33;;;19.90;;
18796;SDS011;9526;52.612;13.300;2022-12-24T08:10:02;94.55;;;20.40;;
18796;SDS011;9526;52.612;13.300;2022-12-24T08:12:27;94.03;;;19.50;;
18796;SDS011;9526;52.612;13.300;2022-12-24T08:14:51;91.70;;;19.63;;
18796;SDS011;9526;52.612;13.300;2022-12-24T08:17:14;95.40;;;21.00;;
18796;SDS011;9526;52.612;13.300;2022-12-24T08:19:39;92.25;;;20.10;;
18796;SDS011;9526;52.612;13.300;2022-12-24T08:22:03;78.97;;;19.27;;
18796;SDS011;9526;52.612;13.300;2022-12-24T08:24:27;74.93;;;18.87;;
18796;SDS011;9526;52.612;13.300;2022-12-24T08:26:50;82.93;;;20.27;;
18796;SDS011;9526;52.612;13.300;2022-12-24T08:29:14;76.25;;;18.40;;
18796;SDS011;9526;52.612;13.300;2022-12-24T08:31:38;82.28;;;22.15;;
18796;SDS011;9526;52.612;13.300;2022-12-24T08:34:02;77.40;;;18.92;;
18796;SDS011;9526;52.612;13.300;2022-12-24T08:36:28;71.50;;;20.13;;
18796;SDS011;9526;52.612;13.300;2022-12-24T08:38:51;76.95;;;20.00;;
18796;SDS011;9526;52.612;13.300;2022-12-24T08:41:15;78.22;;;19.45;;
18796;SDS011;9526;52.612;13.300;2022-12-24T08:43:39;87.95;;;20.27;;
18796;SDS011;9526;52.612;13.300;2022-12-24T08:46:03;87.72;;;20.05;;
18796;SDS011;9526;52.612;13.300;2022-12-24T08:48:28;91.65;;;19.92;;
18796;SDS011;9526;52.612;13.300;2022-12-24T08:50:52;88.93;;;20.48;;
18796;SDS011;9526;52.612;13.300;2022-12-24T08:53:17;98.20;;;20.93;;
18796;SDS011;9526;52.612;13.300;2022-12-24T08:55:40;96.10;;;20.02;;
18796;SDS011;9526;52.612;13.300;2022-12-24T08:58:07;88.88;;;19.25;;
18796;SDS011;9526;52.612;13.300;2022-12-24T09:00:30;78.13;;;18.95;;
18796;SDS011;9526;52.612;13.300;2022-12-24T09:02:54;79.88;;;19.75;;
18796;SDS011;9526;52.612;13.300;2022-12-24T09:05:18;86.85;;;19.20;;
18796;SDS011;9526;52.612;13.300;2022-12-24T09:07:42;80.88;;;20.38;;
18796;SDS011;9526;52.612;13.300;2022-12-24T09:10:08;78.68;;;19.67;;
18796;SDS011;9526;52.612;13.300;2022-12-24T09:12:33;77.13;;;18.98;;
18796;SDS011;9526;52.612;13.300;2022-12-24T09:14:56;80.57;;;19.25;;
18796;SDS011;9526;52.612;13.300;2022-12-24T09:17:24;89.82;;;20.02;;
18796;SDS011;9526;52.612;13.300;2022-12-24T09:19:48;76.38;;;18.48;;
18796;SDS011;9526;52.612;13.300;2022-12-24T09:22:12;89.70;;;20.25;;
18796;SDS011;9526;52.612;13.300;2022-12-24T09:24:36;103.67;;;21.20;;
18796;SDS011;9526;52.612;13.300;2022-12-24T09:27:01;76.30;;;18.83;;
18796;SDS011;9526;52.612;13.300;2022-12-24T09:29:25;75.00;;;18.92;;
18796;SDS011;9526;52.612;13.300;2022-12-24T09:31:48;73.38;;;18.35;;
18796;SDS011;9526;52.612;13.300;2022-12-24T09:34:12;88.07;;;19.75;;
18796;SDS011;9526;52.612;13.300;2022-12-24T09:36:36;73.25;;;18.65;;
18796;SDS011;9526;52.612;13.300;2022-12-24T09:39:00;73.97;;;18.88;;
18796;SDS011;9526;52.612;13.300;2022-12-24T09:41:28;83.63;;;19.95;;
18796;SDS011;9526;52.612;13.300;2022-12-24T09:44:11;86.93;;;19.73;;
18796;SDS011;9526;52.612;13.300;2022-12-24T09:46:53;87.05;;;20.10;;
18796;SDS011;9526;52.612;13.300;2022-12-24T09:49:19;94.82;;;21.20;;
18796;SDS011;9526;52.612;13.300;2022-12-24T09:51:48;99.22;;;20.75;;
18796;SDS011;9526;52.612;13.300;2022-12-24T09:54:16;92.93;;;21.15;;
18796;SDS011;9526;52.612;13.300;2022-12-24T09:56:46;74.70;;;20.52;;
18796;SDS011;9526;52.612;13.300;2022-12-24T09:59:12;78.78;;;20.30;;
18796;SDS011;9526;52.612;13.300;2022-12-24T10:01:39;80.43;;;20.10;;
18796;SDS011;9526;52.612;13.300;2022-12-24T10:04:04;71.70;;;20.13;;
18796;SDS011;9526;52.612;13.300;2022-12-24T10:06:35;82.40;;;20.20;;
18796;SDS011;9526;52.612;13.300;2022-12-24T10:09:10;69.22;;;19.42;;
18796;SDS011;9526;52.612;13.300;2022-12-24T10:11:46;74.35;;;18.98;;
18796;SDS011;9526;52.612;13.300;2022-12-24T10:14:24;72.05;;;19.92;;
18796;SDS011;9526;52.612;13.300;2022-12-24T10:17:02;81.43;;;20.35;;
18796;SDS011;9526;52.612;13.300;2022-12-24T10:19:46;87.30;;;22.02;;
18796;SDS011;9526;52.612;13.300;2022-12-24T10:22:19;78.97;;;20.77;;
18796;SDS011;9526;52.612;13.300;2022-12-24T10:24:53;81.35;;;20.92;;
18796;SDS011;9526;52.612;13.300;2022-12-24T10:27:25;99.30;;;22.45;;
18796;SDS011;9526;52.612;13.300;2022-12-24T10:29:57;78.50;;;20.58;;
18796;SDS011;9526;52.612;13.300;2022-12-24T10:32:33;89.13;;;23.60;;
18796;SDS011;9526;52.612;13.300;2022-12-24T10:34:58;98.82;;;27.00;;
18796;SDS011;9526;52.612;13.300;2022-12-24T10:37:28;86.18;;;25.30;;
18796;SDS011;9526;52.612;13.300;2022-12-24T10:39:52;88.35;;;26.00;;
18796;SDS011;9526;52.612;13.300;2022-12-24T10:42:16;99.90;;;24.88;;
18796;SDS011;9526;52.612;13.300;2022-12-24T10:44:42;82.45;;;24.20;;
18796;SDS011;9526;52.612;13.300;2022-12-24T10:47:14;97.18;;;25.55;;
18796;SDS011;9526;52.612;13.300;2022-12-24T10:49:41;72.05;;;20.10;;
18796;SDS011;9526;52.612;13.300;2022-12-24T10:52:09;78.75;;;21.45;;
18796;SDS011;9526;52.612;13.300;2022-12-24T10:54:36;85.43;;;22.50;;
18796;SDS011;9526;52.612;13.300;2022-12-24T10:57:32;83.88;;;21.27;;
18796;SDS011;9526;52.612;13.300;2022-12-24T10:59:56;80.45;;;20.90;;
18796;SDS011;9526;52.612;13.300;2022-12-24T11:02:25;95.75;;;22.90;;
18796;SDS011;9526;52.612;13.300;2022-12-24T11:04:51;79.50;;;22.75;;
18796;SDS011;9526;52.612;13.300;2022-12-24T11:07:16;85.38;;;22.42;;
18796;SDS011;9526;52.612;13.300;2022-12-24T11:09:43;97.20;;;23.38;;
18796;SDS011;9526;52.612;13.300;2022-12-24T11:12:22;74.72;;;22.27;;
18796;SDS011;9526;52.612;13.300;2022-12-24T11:14:49;75.82;;;21.60;;
18796;SDS011;9526;52.612;13.300;2022-12-24T11:17:23;80.35;;;21.90;;
18796;SDS011;9526;52.612;13.300;2022-12-24T11:19:47;92.57;;;21.85;;
18796;SDS011;9526;52.612;13.300;2022-12-24T11:22:16;87.88;;;22.30;;
18796;SDS011;9526;52.612;13.300;2022-12-24T11:24:45;82.35;;;22.60;;
18796;SDS011;9526;52.612;13.300;2022-12-24T11:30:20;97.07;;;22.98;;
18796;SDS011;9526;52.612;13.300;2022-12-24T11:32:50;88.05;;;22.65;;
18796;SDS011;9526;52.612;13.300;2022-12-24T11:35:44;93.75;;;23.17;;
18796;SDS011;9526;52.612;13.300;2022-12-24T11:38:15;94.93;;;23.30;;
18796;SDS011;9526;52.612;13.300;2022-12-24T11:40:43;88.72;;;22.55;;
18796;SDS011;9526;52.612;13.300;2022-12-24T11:43:14;86.82;;;20.88;;
18796;SDS011;9526;52.612;13.300;2022-12-24T11:45:44;86.97;;;21.73;;
18796;SDS011;9526;52.612;13.300;2022-12-24T11:48:21;67.38;;;20.50;;
18796;SDS011;9526;52.612;13.300;2022-12-24T11:50:50;77.55;;;20.27;;
18796;SDS011;9526;52.612;13.300;2022-12-24T11:53:20;76.85;;;21.15;;
18796;SDS011;9526;52.612;13.300;2022-12-24T11:55:48;72.28;;;20.38;;
18796;SDS011;9526;52.612;13.300;2022-12-24T11:58:18;65.68;;;19.30;;
18796;SDS011;9526;52.612;13.300;2022-12-24T12:00:48;70.53;;;19.60;;
18796;SDS011;9526;52.612;13.300;2022-12-24T12:03:17;83.57;;;21.00;;
18796;SDS011;9526;52.612;13.300;2022-12-24T12:05:51;69.88;;;19.17;;
18796;SDS011;9526;52.612;13.300;2022-12-24T12:08:16;81.97;;;20.23;;
18796;SDS011;9526;52.612;13.300;2022-12-24T12:10:42;79.55;;;21.08;;
18796;SDS011;9526;52.612;13.300;2022-12-24T12:13:09;76.45;;;19.77;;
18796;SDS011;9526;52.612;13.300;2022-12-24T12:15:38;76.03;;;19.67;;
18796;SDS011;9526;52.612;13.300;2022-12-24T12:18:08;73.88;;;20.52;;
18796;SDS011;9526;52.612;13.300;2022-12-24T12:20:37;89.22;;;21.60;;
18796;SDS011;9526;52.612;13.300;2022-12-24T12:23:04;61.80;;;19.13;;
18796;SDS011;9526;52.612;13.300;2022-12-24T12:25:37;70.18;;;19.50;;
18796;SDS011;9526;52.612;13.300;2022-12-24T12:28:10;68.22;;;19.25;;
18796;SDS011;9526;52.612;13.300;2022-12-24T12:30:42;68.13;;;19.45;;
18796;SDS011;9526;52.612;13.300;2022-12-24T12:33:10;68.68;;;20.17;;
18796;SDS011;9526;52.612;13.300;2022-12-24T12:35:41;61.53;;;18.50;;
18796;SDS011;9526;52.612;13.300;2022-12-24T12:38:08;70.75;;;19.52;;
18796;SDS011;9526;52.612;13.300;2022-12-24T12:43:27;66.15;;;18.75;;
18796;SDS011;9526;52.612;13.300;2022-12-24T12:46:05;79.78;;;19.67;;
18796;SDS011;9526;52.612;13.300;2022-12-24T12:48:43;65.22;;;19.25;;
18796;SDS011;9526;52.612;13.300;2022-12-24T12:51:24;75.57;;;19.67;;
18796;SDS011;9526;52.612;13.300;2022-12-24T12:54:01;60.40;;;18.27;;
18796;SDS011;9526;52.612;13.300;2022-12-24T12:56:47;69.15;;;18.52;;
18796;SDS011;9526;52.612;13.300;2022-12-24T12:59:15;68.30;;;17.73;;
18796;SDS011;9526;52.612;13.300;2022-12-24T13:01:55;56.78;;;17.13;;
18796;SDS011;9526;52.612;13.300;2022-12-24T13:04:52;57.25;;;18.27;;
18796;SDS011;9526;52.612;13.300;2022-12-24T13:16:51;57.00;;;16.38;;
18796;SDS011;9526;52.612;13.300;2022-12-24T13:22:39;70.15;;;17.90;;
18796;SDS011;9526;52.612;13.300;2022-12-24T13:25:17;72.25;;;18.65;;
18796;SDS011;9526;52.612;13.300;2022-12-24T13:27:44;57.70;;;17.85;;
18796;SDS011;9526;52.612;13.300;2022-12-24T13:30:13;60.95;;;19.23;;
18796;SDS011;9526;52.612;13.300;2022-12-24T13:32:59;57.55;;;17.30;;
18796;SDS011;9526;52.612;13.300;2022-12-24T13:35:29;46.13;;;17.95;;
18796;SDS011;9526;52.612;13.300;2022-12-24T13:47:00;50.88;;;18.35;;
18796;SDS011;9526;52.612;13.300;2022-12-24T13:50:12;51.33;;;17.70;;
18796;SDS011;9526;52.612;13.300;2022-12-24T13:52:49;61.40;;;19.80;;
18796;SDS011;9526;52.612;13.300;2022-12-24T13:55:14;56.38;;;18.58;;
18796;SDS011;9526;52.612;13.300;2022-12-24T13:57:39;60.05;;;19.55;;
18796;SDS011;9526;52.612;13.300;2022-12-24T14:00:22;51.03;;;17.52;;
18796;SDS011;9526;52.612;13.300;2022-12-24T14:02:57;59.65;;;17.55;;
18796;SDS011;9526;52.612;13.300;2022-12-24T14:05:29;59.70;;;19.42;;
18796;SDS011;9526;52.612;13.300;2022-12-24T14:07:56;57.53;;;18.67;;
18796;SDS011;9526;52.612;13.300;2022-12-24T14:10:22;47.50;;;16.30;;
18796;SDS011;9526;52.612;13.300;2022-12-24T14:12:57;60.65;;;18.85;;
18796;SDS011;9526;52.612;13.300;2022-12-24T14:18:24;65.25;;;18.52;;
18796;SDS011;9526;52.612;13.300;2022-12-24T14:20:50;76.57;;;19.83;;
18796;SDS011;9526;52.612;13.300;2022-12-24T14:23:18;58.13;;;18.40;;
18796;SDS011;9526;52.612;13.300;2022-12-24T14:25:53;55.58;;;16.88;;
18796;SDS011;9526;52.612;13.300;2022-12-24T14:28:18;60.42;;;18.60;;
18796;SDS011;9526;52.612;13.300;2022-12-24T14:30:58;110.43;;;20.50;;
18796;SDS011;9526;52.612;13.300;2022-12-24T14:33:29;69.20;;;18.85;;
18796;SDS011;9526;52.612;13.300;2022-12-24T14:35:55;71.68;;;17.95;;
18796;SDS011;9526;52.612;13.300;2022-12-24T14:38:19;75.38;;;21.25;;
18796;SDS011;9526;52.612;13.300;2022-12-24T14:40:48;159.85;;;20.60;;
18796;SDS011;9526;52.612;13.300;2022-12-24T14:43:30;121.57;;;23.40;;
18796;SDS011;9526;52.612;13.300;2022-12-24T14:46:11;168.57;;;22.23;;
18796;SDS011;9526;52.612;13.300;2022-12-24T14:48:47;101.63;;;21.70;;
18796;SDS011;9526;52.612;13.300;2022-12-24T14:51:19;142.27;;;23.92;;
18796;SDS011;9526;52.612;13.300;2022-12-24T14:53:58;110.10;;;28.67;;
18796;SDS011;9526;52.612;13.300;2022-12-24T14:57:03;118.82;;;25.38;;
18796;SDS011;9526;52.612;13.300;2022-12-24T14:59:41;79.95;;;25.08;;
18796;SDS011;9526;52.612;13.300;2022-12-24T15:05:11;77.28;;;23.65;;
18796;SDS011;9526;52.612;13.300;2022-12-24T15:07:41;68.85;;;21.80;;